Time;durP1;ratioP1;P1;durP2;ratioP2;P2;SDS_P1;SDS_P2;PMS_P1;PMS_P2;Temp;Humidity;BMP_temperature;BMP_pressure;BME280_temperature;BME280_humidity;BME280_pressure;Samples;Min_cycle;Max_cycle;Signal;HPM_P1;HPM_P2
2022/02/24 06:21:41;;;;;;;7.33;2.10;;;4.40;99.90;;;;;;6363717;27;20715;-77
2022/02/24 06:24:47;;;;;;;5.37;1.77;;;4.40;99.90;;;;;;6310249;27;20301;-76
2022/02/24 06:27:53;;;;;;;4.13;2.07;;;4.20;99.90;;;;;;6307815;28;20293;-76
2022/02/24 06:30:59;;;;;;;6.20;1.93;;;4.30;99.90;;;;;;6308227;28;20272;-76
2022/02/24 06:34:04;;;;;;;8.37;1.80;;;4.40;99.90;;;;;;6308260;28;20294;-75
2022/02/24 06:37:12;;;;;;;5.10;1.90;;;4.40;99.90;;;;;;6307526;28;20276;-76
2022/02/24 06:40:17;;;;;;;6.30;2.23;;;4.40;99.90;;;;;;6308461;28;20288;-76
2022/02/24 06:43:23;;;;;;;3.10;2.10;;;4.50;99.90;;;;;;6308089;28;20300;-76
2022/02/24 06:46:28;;;;;;;5.30;1.77;;;4.50;99.90;;;;;;6307638;28;20281;-76
2022/02/24 06:49:34;;;;;;;5.00;1.63;;;4.50;99.90;;;;;;6307517;28;20493;-77
2022/02/24 06:52:44;;;;;;;6.57;1.77;;;4.60;99.90;;;;;;6308230;28;20296;-76
2022/02/24 06:55:49;;;;;;;6.00;2.47;;;4.60;99.90;;;;;;6308435;28;20282;-77
2022/02/24 06:58:55;;;;;;;6.43;2.10;;;4.70;99.90;;;;;;6307792;28;20596;-77
2022/02/24 07:02:00;;;;;;;3.40;1.90;;;4.60;99.90;;;;;;6307276;28;20294;-77
2022/02/24 07:05:06;;;;;;;2.03;1.70;;;4.60;99.90;;;;;;6306986;28;20274;-77
2022/02/24 07:08:17;;;;;;;6.13;2.13;;;4.70;99.90;;;;;;6307226;28;20299;-77
2022/02/24 07:11:23;;;;;;;4.23;1.90;;;4.70;99.90;;;;;;6307542;28;20274;-77
2022/02/24 07:14:28;;;;;;;7.67;2.07;;;4.70;99.90;;;;;;6307641;28;20298;-75
2022/02/24 07:17:34;;;;;;;7.40;1.97;;;4.70;99.90;;;;;;6308081;28;20305;-76
2022/02/24 07:20:39;;;;;;;5.57;1.67;;;4.70;99.90;;;;;;6307057;28;20453;-76
2022/02/24 07:23:47;;;;;;;7.60;2.30;;;4.80;99.90;;;;;;6306656;28;20297;-76
2022/02/24 07:26:53;;;;;;;2.23;2.07;;;4.70;99.90;;;;;;6307157;28;20275;-76
2022/02/24 07:29:58;;;;;;;4.87;1.93;;;4.70;99.90;;;;;;6306589;28;20283;-76
2022/02/24 07:33:04;;;;;;;8.70;1.90;;;4.80;99.90;;;;;;6290488;28;20307;-76
2022/02/24 07:36:11;;;;;;;3.97;1.70;;;4.80;99.90;;;;;;6290397;28;20275;-76
2022/02/24 07:39:18;;;;;;;10.80;2.27;;;4.80;99.90;;;;;;6290352;28;20297;-76
2022/02/24 07:42:22;;;;;;;3.97;1.90;;;4.80;99.90;;;;;;6289393;28;20561;-76
2022/02/24 07:45:29;;;;;;;8.70;2.47;;;4.80;99.90;;;;;;6289783;28;20274;-77
2022/02/24 07:48:34;;;;;;;7.10;2.20;;;4.80;99.90;;;;;;6289422;28;20302;-76
2022/02/24 07:51:40;;;;;;;5.57;2.00;;;4.90;99.90;;;;;;6286611;28;20311;-76
2022/02/24 07:54:46;;;;;;;5.90;1.87;;;4.90;99.90;;;;;;6289876;28;20293;-76
2022/02/24 07:57:55;;;;;;;8.73;2.10;;;4.90;99.90;;;;;;6289171;28;20271;-76
2022/02/24 08:01:00;;;;;;;8.17;2.10;;;4.90;99.90;;;;;;6289972;28;20308;-75
2022/02/24 08:04:06;;;;;;;3.47;2.10;;;4.90;99.90;;;;;;6289004;28;20290;-76
2022/02/24 08:07:12;;;;;;;4.53;2.10;;;5.10;99.90;;;;;;6290253;28;20271;-76
2022/02/24 08:10:19;;;;;;;6.67;2.07;;;5.10;99.90;;;;;;6289313;28;20306;-76
2022/02/24 08:13:24;;;;;;;4.87;1.90;;;5.10;99.90;;;;;;6289909;28;20268;-76
2022/02/24 08:16:30;;;;;;;7.10;2.43;;;5.10;99.90;;;;;;6289401;28;20292;-76
2022/02/24 08:19:35;;;;;;;6.13;2.20;;;5.10;99.90;;;;;;6289039;28;20314;-76
2022/02/24 08:22:45;;;;;;;7.07;1.90;;;5.10;99.90;;;;;;6290120;28;20464;-76
2022/02/24 08:25:51;;;;;;;8.67;2.13;;;5.00;99.90;;;;;;6288996;28;20315;-76
2022/02/24 08:28:57;;;;;;;7.53;2.10;;;5.00;99.90;;;;;;6289382;28;20268;-76
2022/02/24 08:32:02;;;;;;;4.20;2.30;;;5.00;99.90;;;;;;6288890;28;20298;-76
2022/02/24 08:35:10;;;;;;;6.70;2.80;;;5.10;99.90;;;;;;6287968;28;20306;-76
2022/02/24 08:38:18;;;;;;;8.43;2.57;;;5.00;99.90;;;;;;6289084;28;20270;-76
2022/02/24 08:41:25;;;;;;;5.47;2.30;;;5.00;99.90;;;;;;6288527;28;20305;-76
2022/02/24 08:44:30;;;;;;;7.50;2.33;;;5.10;99.90;;;;;;6288277;28;20303;-80
2022/02/24 08:47:36;;;;;;;7.53;2.63;;;5.20;99.90;;;;;;6289884;28;20274;-77
2022/02/24 08:50:42;;;;;;;8.10;2.70;;;5.20;99.90;;;;;;6288531;28;20295;-76
2022/02/24 08:53:57;;;;;;;4.10;2.30;;;5.20;99.90;;;;;;6288063;28;20565;-77
2022/02/24 08:57:04;;;;;;;6.77;2.53;;;5.20;99.90;;;;;;6289026;28;20274;-77
2022/02/24 09:00:12;;;;;;;7.17;2.77;;;5.20;99.90;;;;;;6288290;28;20295;-77
2022/02/24 09:03:20;;;;;;;7.00;3.20;;;5.20;99.90;;;;;;6288377;28;20320;-77
2022/02/24 09:06:25;;;;;;;9.60;2.83;;;5.20;99.90;;;;;;6288016;28;20459;-76
2022/02/24 09:09:30;;;;;;;3.87;2.20;;;5.30;99.90;;;;;;6286587;28;20295;-77
2022/02/24 09:12:37;;;;;;;7.60;2.30;;;5.30;99.90;;;;;;6263101;28;20276;-76
2022/02/24 09:15:42;;;;;;;8.97;2.30;;;5.30;99.90;;;;;;6279274;28;20302;-77
2022/02/24 09:18:49;;;;;;;9.60;2.80;;;5.30;99.90;;;;;;6287172;28;20274;-76
2022/02/24 09:21:55;;;;;;;8.47;2.97;;;5.30;99.90;;;;;;6287433;28;20481;-77
2022/02/24 09:25:01;;;;;;;8.70;2.57;;;5.30;99.90;;;;;;6287449;28;20681;-76
2022/02/24 09:28:08;;;;;;;6.40;2.43;;;5.30;99.90;;;;;;6287623;28;20277;-76
2022/02/24 09:31:16;;;;;;;4.43;2.13;;;5.30;99.90;;;;;;6287573;28;20301;-76
2022/02/24 09:34:23;;;;;;;4.33;2.40;;;5.30;99.90;;;;;;6287076;28;20308;-76
2022/02/24 09:37:34;;;;;;;7.37;2.73;;;5.20;99.90;;;;;;6286887;28;20274;-77
2022/02/24 09:40:40;;;;;;;6.47;2.80;;;5.30;99.90;;;;;;6285817;28;20479;-77
2022/02/24 09:43:58;;;;;;;4.83;2.43;;;5.30;99.90;;;;;;6286883;28;20314;-76
2022/02/24 09:47:04;;;;;;;8.47;2.80;;;5.30;99.90;;;;;;6287659;28;20461;-76
2022/02/24 09:50:11;;;;;;;8.53;2.97;;;5.30;99.90;;;;;;6287073;28;20307;-76
2022/02/24 09:53:17;;;;;;;9.43;2.60;;;5.40;99.90;;;;;;6287594;28;20278;-76
2022/02/24 09:56:29;;;;;;;8.87;2.63;;;5.40;99.90;;;;;;6302756;28;20296;-76
2022/02/24 09:59:36;;;;;;;6.47;2.60;;;5.40;99.90;;;;;;6286941;28;20291;-76
2022/02/24 10:02:42;;;;;;;9.73;2.90;;;5.40;99.90;;;;;;6287174;28;20289;-77
2022/02/24 10:05:47;;;;;;;5.10;2.30;;;5.40;99.90;;;;;;6287262;28;20295;-77
2022/02/24 10:08:53;;;;;;;5.63;2.70;;;5.40;99.90;;;;;;6287940;28;20277;-78
2022/02/24 10:12:06;;;;;;;7.80;2.73;;;5.40;99.90;;;;;;6287291;28;20285;-78
2022/02/24 10:15:16;;;;;;;8.30;2.77;;;5.40;99.90;;;;;;6286668;28;20313;-77
2022/02/24 10:18:24;;;;;;;5.30;2.23;;;5.40;99.90;;;;;;6286248;28;20278;-76
2022/02/24 10:21:30;;;;;;;5.30;2.13;;;5.40;99.90;;;;;;6285677;28;20300;-75
2022/02/24 10:24:35;;;;;;;3.67;2.40;;;5.30;99.90;;;;;;6286628;28;20348;-76
2022/02/24 10:27:40;;;;;;;2.37;2.17;;;5.30;99.90;;;;;;6287581;28;20279;-75
2022/02/24 10:30:52;;;;;;;2.40;2.20;;;5.30;99.90;;;;;;6287481;28;20310;-77
2022/02/24 10:34:11;;;;;;;5.60;2.40;;;5.30;99.90;;;;;;6288286;28;20271;-78
2022/02/24 10:37:16;;;;;;;2.83;2.00;;;5.30;99.90;;;;;;6303026;28;20586;-77
2022/02/24 10:40:25;;;;;;;1.87;1.80;;;5.30;99.90;;;;;;6287464;28;20319;-79
2022/02/24 10:43:36;;;;;;;3.03;2.47;;;5.20;99.90;;;;;;6286938;28;20294;-77
2022/02/24 10:46:44;;;;;;;2.50;1.67;;;5.20;99.90;;;;;;6286687;28;20275;-76
2022/02/24 10:49:52;;;;;;;1.93;1.80;;;5.10;99.90;;;;;;6285485;28;20307;-76
2022/02/24 10:53:06;;;;;;;2.40;1.73;;;5.10;99.90;;;;;;6286957;28;20277;-78
2022/02/24 10:56:15;;;;;;;2.03;1.90;;;5.10;99.90;;;;;;6287222;28;20299;-77
2022/02/24 10:59:32;;;;;;;2.27;1.90;;;5.00;99.90;;;;;;6286077;28;20291;-75
2022/02/24 11:02:38;;;;;;;3.50;2.03;;;5.00;99.90;;;;;;6286234;28;20296;-76
2022/02/24 11:05:44;;;;;;;2.23;1.90;;;5.00;99.90;;;;;;6286081;28;20303;-77
2022/02/24 11:08:51;;;;;;;1.87;1.87;;;4.90;99.90;;;;;;6290416;28;20275;-77
2022/02/24 11:11:57;;;;;;;2.43;2.00;;;4.90;99.90;;;;;;6269532;28;20271;-82
2022/02/24 11:15:03;;;;;;;3.87;2.00;;;4.90;99.90;;;;;;6277664;28;20300;-77
2022/02/24 11:18:18;;;;;;;5.20;2.57;;;4.90;99.90;;;;;;6290916;28;20278;-76
2022/02/24 11:21:24;;;;;;;7.27;2.83;;;4.80;99.90;;;;;;6290618;28;20300;-77
2022/02/24 11:24:29;;;;;;;5.17;2.70;;;4.80;99.90;;;;;;6290678;28;20301;-76
2022/02/24 11:27:38;;;;;;;2.40;2.20;;;4.80;99.90;;;;;;6291416;28;20273;-76
2022/02/24 11:30:48;;;;;;;6.23;2.70;;;4.70;99.90;;;;;;6290941;28;20299;-76
2022/02/24 11:33:56;;;;;;;4.63;3.20;;;4.70;99.90;;;;;;6290472;28;20574;-76
2022/02/24 11:37:01;;;;;;;4.77;2.57;;;4.70;99.90;;;;;;6290639;28;20272;-76
2022/02/24 11:40:09;;;;;;;6.07;2.90;;;4.70;99.90;;;;;;6291021;28;20481;-79
2022/02/24 11:43:22;;;;;;;3.63;2.70;;;4.70;99.90;;;;;;6291908;28;20296;-76
2022/02/24 11:46:28;;;;;;;6.10;2.77;;;4.70;99.90;;;;;;6289502;28;20314;-76
2022/02/24 11:50:10;;;;;;;3.93;2.60;;;4.70;99.90;;;;;;6290305;28;20470;-76
2022/02/24 11:53:33;;;;;;;4.37;2.27;;;4.70;99.90;;;;;;6292033;28;20327;-81
2022/02/24 11:56:38;;;;;;;5.10;2.83;;;4.70;99.90;;;;;;6292326;28;20292;-78
2022/02/24 11:59:51;;;;;;;2.70;2.60;;;4.70;99.90;;;;;;6291651;28;20293;-78
2022/02/24 12:02:57;;;;;;;4.50;2.70;;;4.80;99.90;;;;;;6290041;28;20272;-78
2022/02/24 12:06:08;;;;;;;2.60;2.40;;;4.80;99.90;;;;;;6270982;28;20297;-76
2022/02/24 12:09:28;;;;;;;7.67;2.60;;;4.80;99.90;;;;;;6264286;28;20311;-76
2022/02/24 12:12:33;;;;;;;4.27;2.37;;;4.80;99.90;;;;;;6264196;28;20440;-76
2022/02/24 12:15:39;;;;;;;5.70;2.47;;;4.80;99.90;;;;;;6263688;28;20494;-76
2022/02/24 12:18:45;;;;;;;4.47;2.10;;;4.90;99.90;;;;;;6263648;28;20279;-76
2022/02/24 12:22:22;;;;;;;2.53;1.80;;;4.90;99.90;;;;;;6264492;28;20556;-78
2022/02/24 12:25:28;;;;;;;6.87;2.40;;;4.90;99.90;;;;;;6264569;28;20302;-78
2022/02/24 12:28:37;;;;;;;6.73;2.17;;;4.80;99.90;;;;;;6265983;28;20271;-77
2022/02/24 12:31:43;;;;;;;4.63;2.10;;;4.80;99.90;;;;;;6263211;28;20369;-76
2022/02/24 12:34:48;;;;;;;3.60;2.20;;;4.80;99.90;;;;;;6265032;28;20300;-78
2022/02/24 12:37:55;;;;;;;3.30;2.30;;;4.80;99.90;;;;;;6266041;28;20439;-75
2022/02/24 12:41:00;;;;;;;4.47;2.23;;;4.90;99.90;;;;;;6264303;28;20305;-77
2022/02/24 12:44:21;;;;;;;4.40;2.23;;;4.90;99.90;;;;;;6265804;28;20616;-77
2022/02/24 12:47:27;;;;;;;3.57;2.40;;;4.90;99.90;;;;;;6266194;28;20554;-78
2022/02/24 12:50:36;;;;;;;3.93;2.50;;;4.90;99.90;;;;;;6266900;28;20303;-78
2022/02/24 12:53:44;;;;;;;3.03;2.73;;;4.90;99.90;;;;;;6279885;28;20272;-79
2022/02/24 12:56:49;;;;;;;7.23;3.33;;;4.90;99.90;;;;;;6264831;28;20299;-76
2022/02/24 12:59:55;;;;;;;3.50;2.90;;;4.90;99.90;;;;;;6263552;28;20317;-76
2022/02/24 13:03:03;;;;;;;3.43;2.70;;;4.80;99.90;;;;;;6263508;28;20274;-76
2022/02/24 13:06:13;;;;;;;2.27;2.17;;;4.80;99.90;;;;;;6262872;28;20303;-77
2022/02/24 13:12:44;;;;;;;8.63;2.77;;;4.80;99.90;;;;;;6262703;28;20569;-75
2022/02/24 13:15:49;;;;;;;4.40;2.40;;;4.70;99.90;;;;;;6262611;28;20296;-76
2022/02/24 13:18:55;;;;;;;3.50;2.40;;;4.70;99.90;;;;;;6262043;28;20439;-77
2022/02/24 13:22:01;;;;;;;5.00;2.30;;;4.70;99.90;;;;;;6262711;28;20271;-76
2022/02/24 13:25:11;;;;;;;2.57;2.40;;;4.70;99.90;;;;;;6262691;28;20301;-76
2022/02/24 13:28:17;;;;;;;10.63;5.20;;;4.70;99.90;;;;;;6263070;28;20275;-76
2022/02/24 13:31:23;;;;;;;6.47;3.10;;;4.70;99.90;;;;;;6262353;28;20467;-76
2022/02/24 13:34:33;;;;;;;6.87;2.57;;;4.70;99.90;;;;;;6262058;28;20301;-76
2022/02/24 13:37:40;;;;;;;4.73;2.47;;;4.70;99.90;;;;;;6262012;28;20294;-76
2022/02/24 13:40:50;;;;;;;4.07;2.10;;;4.70;99.90;;;;;;6261923;28;20298;-76
2022/02/24 13:44:00;;;;;;;2.60;2.00;;;4.70;99.90;;;;;;6262037;28;20275;-76
2022/02/24 13:47:08;;;;;;;2.70;2.10;;;4.70;99.90;;;;;;6262934;28;20292;-76
2022/02/24 13:50:13;;;;;;;3.40;2.00;;;4.70;99.90;;;;;;6261945;28;20303;-76
2022/02/24 13:53:25;;;;;;;2.43;2.23;;;4.60;99.90;;;;;;6262477;28;20273;-76
2022/02/24 13:56:42;;;;;;;5.67;2.70;;;4.70;99.90;;;;;;6358789;28;20292;-76
2022/02/24 14:00:07;;;;;;;5.03;2.57;;;4.60;99.90;;;;;;6361720;28;20292;-76
2022/02/24 14:03:14;;;;;;;4.23;2.63;;;4.50;99.90;;;;;;6361872;28;20267;-76
2022/02/24 14:06:24;;;;;;;4.30;2.50;;;4.50;99.90;;;;;;6361155;28;20298;-76
2022/02/24 14:09:30;;;;;;;2.60;2.50;;;4.50;99.90;;;;;;6361481;28;20612;-76
2022/02/24 14:12:38;;;;;;;5.50;2.83;;;4.50;99.90;;;;;;6361521;28;20270;-76
2022/02/24 14:15:45;;;;;;;4.70;2.70;;;4.50;99.90;;;;;;6361649;28;20296;-76
2022/02/24 14:18:51;;;;;;;7.03;3.30;;;4.50;99.90;;;;;;6360611;28;20462;-76
2022/02/24 14:21:57;;;;;;;4.73;2.83;;;4.50;99.90;;;;;;6361975;28;20292;-76
2022/02/24 14:25:02;;;;;;;4.50;2.70;;;4.40;99.90;;;;;;6360850;28;20298;-76
2022/02/24 14:28:10;;;;;;;4.87;2.40;;;4.40;99.90;;;;;;6361487;28;20557;-76
2022/02/24 14:31:17;;;;;;;2.83;1.93;;;4.30;99.90;;;;;;6361374;28;20288;-75
2022/02/24 14:34:22;;;;;;;2.63;2.40;;;4.30;99.90;;;;;;6360883;28;20303;-75
2022/02/24 14:37:27;;;;;;;1.93;1.80;;;4.30;99.90;;;;;;6360864;28;20279;-75
2022/02/24 14:40:34;;;;;;;1.80;1.70;;;4.30;99.90;;;;;;6361023;28;20296;-76
2022/02/24 14:43:40;;;;;;;1.70;1.70;;;4.20;99.90;;;;;;6366441;28;20272;-76
2022/02/24 14:46:46;;;;;;;2.23;1.70;;;4.20;99.90;;;;;;6364954;28;20300;-76
2022/02/24 14:49:51;;;;;;;1.77;1.77;;;4.20;99.90;;;;;;6365564;28;20472;-76
2022/02/24 14:52:58;;;;;;;1.60;1.50;;;4.20;99.90;;;;;;6366569;28;20272;-76
2022/02/24 14:56:03;;;;;;;4.50;1.80;;;4.10;99.90;;;;;;6366281;28;20293;-76
2022/02/24 14:59:12;;;;;;;1.67;1.60;;;4.10;99.90;;;;;;6366226;28;20488;-76
2022/02/24 15:02:17;;;;;;;4.00;1.50;;;4.10;99.90;;;;;;6364933;28;20277;-76
2022/02/24 15:05:43;;;;;;;1.70;1.60;;;4.10;99.90;;;;;;6365889;28;20295;-76
2022/02/24 15:08:50;;;;;;;1.43;1.33;;;4.20;99.90;;;;;;6365593;28;20276;-76
2022/02/24 15:11:56;;;;;;;1.77;1.63;;;4.20;99.90;;;;;;6343937;28;20262;-76
2022/02/24 15:15:03;;;;;;;3.63;1.70;;;4.20;99.90;;;;;;6340165;28;20297;-76
2022/02/24 15:18:18;;;;;;;2.00;1.50;;;4.20;99.90;;;;;;6339748;28;20281;-76
2022/02/24 15:21:24;;;;;;;3.50;1.33;;;4.10;99.90;;;;;;6340262;28;20303;-76
2022/02/24 15:24:29;;;;;;;1.20;1.20;;;4.10;99.90;;;;;;6339260;28;20583;-76
2022/02/24 15:27:35;;;;;;;1.33;1.33;;;4.10;99.90;;;;;;6340815;28;20296;-76
2022/02/24 15:30:43;;;;;;;1.70;1.27;;;4.10;99.90;;;;;;6339528;28;20293;-75
2022/02/24 15:33:48;;;;;;;1.10;1.10;;;4.10;99.90;;;;;;6340201;28;20268;-76
2022/02/24 15:36:55;;;;;;;1.23;1.23;;;4.00;99.90;;;;;;6340674;28;20561;-76
2022/02/24 15:40:01;;;;;;;0.90;0.90;;;4.00;99.90;;;;;;6339220;28;20621;-76
2022/02/24 15:43:07;;;;;;;1.07;1.00;;;4.00;99.90;;;;;;6339655;28;20561;-76
2022/02/24 15:46:14;;;;;;;2.03;1.10;;;4.00;99.90;;;;;;6339812;28;20584;-76
2022/02/24 15:49:19;;;;;;;1.23;1.07;;;4.00;99.90;;;;;;6338913;28;20306;-76
2022/02/24 15:52:25;;;;;;;1.00;1.00;;;4.00;99.90;;;;;;6339450;28;20272;-76
2022/02/24 15:55:30;;;;;;;2.20;1.00;;;4.00;99.90;;;;;;6338968;28;20465;-76
2022/02/24 15:58:37;;;;;;;2.13;1.30;;;4.00;99.90;;;;;;6340229;28;20276;-76
2022/02/24 16:01:44;;;;;;;1.10;1.10;;;3.90;99.90;;;;;;6338898;28;20269;-78
2022/02/24 16:04:50;;;;;;;1.40;1.40;;;3.90;99.90;;;;;;6339448;28;20292;-76
2022/02/24 16:07:55;;;;;;;2.20;1.40;;;3.80;99.90;;;;;;6339770;28;20297;-76
2022/02/24 16:11:00;;;;;;;1.30;1.30;;;3.80;99.90;;;;;;6339049;28;20324;-76
2022/02/24 16:14:07;;;;;;;1.60;1.50;;;3.80;99.90;;;;;;6339362;28;20288;-76
2022/02/24 16:17:14;;;;;;;1.40;1.40;;;3.70;99.90;;;;;;6338877;28;20276;-76
2022/02/24 16:20:20;;;;;;;1.37;1.37;;;3.70;99.90;;;;;;6338322;28;20295;-77
2022/02/24 16:23:25;;;;;;;3.77;1.50;;;3.70;99.90;;;;;;6338874;28;20273;-76
2022/02/24 16:26:30;;;;;;;1.33;1.33;;;3.60;99.90;;;;;;6338454;28;20296;-77
2022/02/24 16:29:36;;;;;;;2.93;1.77;;;3.60;99.90;;;;;;6337630;28;20288;-76
2022/02/24 16:32:42;;;;;;;1.80;1.80;;;3.60;99.90;;;;;;6338033;28;20269;-76
2022/02/24 16:35:48;;;;;;;1.60;1.60;;;3.50;99.90;;;;;;6337881;28;20580;-77
2022/02/24 16:38:55;;;;;;;1.83;1.83;;;3.50;99.90;;;;;;6338111;28;20276;-77
2022/02/24 16:42:04;;;;;;;2.03;1.93;;;3.50;99.90;;;;;;6338216;28;20277;-77
2022/02/24 16:45:10;;;;;;;1.87;1.87;;;3.50;99.90;;;;;;6337900;28;20294;-77
2022/02/24 16:48:17;;;;;;;2.53;2.33;;;3.60;99.90;;;;;;6338682;28;20596;-77
2022/02/24 16:51:24;;;;;;;2.23;2.13;;;3.60;99.90;;;;;;6337533;28;20606;-76
2022/02/24 16:54:31;;;;;;;2.33;2.23;;;3.60;99.90;;;;;;6337406;28;20293;-77
2022/02/24 16:57:36;;;;;;;1.90;1.90;;;3.60;99.90;;;;;;6337618;28;20264;-77
2022/02/24 17:01:00;;;;;;;2.23;2.17;;;3.60;99.90;;;;;;6337435;28;20301;-77
2022/02/24 17:04:08;;;;;;;1.90;1.90;;;3.70;99.90;;;;;;6335839;28;20293;-77
2022/02/24 17:07:14;;;;;;;4.33;2.20;;;3.70;99.90;;;;;;6337972;28;20273;-76
2022/02/24 17:10:20;;;;;;;2.47;2.37;;;3.70;99.90;;;;;;6328584;28;20302;-76
2022/02/24 17:13:28;;;;;;;2.43;1.93;;;3.70;99.90;;;;;;6312796;28;20272;-76
2022/02/24 17:16:33;;;;;;;2.43;2.33;;;3.70;99.90;;;;;;6312473;28;20297;-76
2022/02/24 17:19:40;;;;;;;2.73;2.53;;;3.70;99.90;;;;;;6328380;28;20304;-76
2022/02/24 17:22:45;;;;;;;3.00;2.70;;;3.70;99.90;;;;;;6362698;28;20276;-76
2022/02/24 17:25:50;;;;;;;2.60;2.40;;;3.70;99.90;;;;;;6362608;28;20291;-76
2022/02/24 17:29:00;;;;;;;3.00;2.80;;;3.70;99.90;;;;;;6361986;28;20291;-77
2022/02/24 17:32:08;;;;;;;2.83;2.63;;;3.70;99.90;;;;;;6362246;28;20264;-77
2022/02/24 17:35:15;;;;;;;2.33;2.13;;;3.70;99.90;;;;;;6361781;28;20305;-76
2022/02/24 17:38:21;;;;;;;4.40;2.10;;;3.70;99.90;;;;;;6362768;28;20279;-76
2022/02/24 17:41:27;;;;;;;2.40;2.20;;;3.70;99.90;;;;;;6361458;28;20293;-76
2022/02/24 17:44:33;;;;;;;1.83;1.70;;;3.70;99.90;;;;;;6361705;28;20296;-76
2022/02/24 17:47:38;;;;;;;1.70;1.60;;;3.70;99.90;;;;;;6363609;28;20281;-75
2022/02/24 17:50:45;;;;;;;1.70;1.70;;;3.80;99.90;;;;;;6361835;28;20293;-75
2022/02/24 17:53:52;;;;;;;2.13;1.60;;;3.80;99.90;;;;;;6361868;28;20273;-76
2022/02/24 17:56:57;;;;;;;1.53;1.53;;;3.70;99.90;;;;;;6361711;28;20271;-75
2022/02/24 18:00:03;;;;;;;1.57;1.47;;;3.70;99.90;;;;;;6361412;28;20296;-76
2022/02/24 18:03:18;;;;;;;1.33;1.33;;;3.70;99.90;;;;;;6363087;28;20268;-76
2022/02/24 18:06:25;;;;;;;1.37;1.37;;;3.70;99.90;;;;;;6362157;28;20291;-76
2022/02/24 18:09:31;;;;;;;1.30;1.30;;;3.60;99.90;;;;;;6359999;28;20479;-76
2022/02/24 18:12:36;;;;;;;1.33;1.23;;;3.60;99.90;;;;;;6337416;28;20560;-76
2022/02/24 18:15:42;;;;;;;1.20;1.20;;;3.60;99.90;;;;;;6336729;28;20305;-77
2022/02/24 18:18:49;;;;;;;1.13;1.13;;;3.60;99.90;;;;;;6335571;28;20281;-76
2022/02/24 18:21:56;;;;;;;2.20;1.67;;;3.60;99.90;;;;;;6336307;28;20272;-76
2022/02/24 18:25:02;;;;;;;3.27;1.43;;;3.50;99.90;;;;;;6336950;28;20292;-77
2022/02/24 18:28:07;;;;;;;1.63;1.30;;;3.50;99.90;;;;;;6337391;28;20270;-76
2022/02/24 18:31:16;;;;;;;1.33;1.30;;;3.50;99.90;;;;;;6337199;28;20296;-76
2022/02/24 18:34:23;;;;;;;1.27;1.27;;;3.50;99.90;;;;;;6336331;28;20290;-76
2022/02/24 18:37:30;;;;;;;1.37;1.37;;;3.50;99.90;;;;;;6337010;28;20277;-75
2022/02/24 18:40:36;;;;;;;1.50;1.50;;;3.50;99.90;;;;;;6336499;28;20324;-78
2022/02/24 18:43:42;;;;;;;2.93;1.80;;;3.50;99.90;;;;;;6336298;28;20566;-77
2022/02/24 18:46:48;;;;;;;2.60;1.60;;;3.40;99.90;;;;;;6336588;28;20272;-78
2022/02/24 18:49:54;;;;;;;2.40;1.53;;;3.40;99.90;;;;;;6335979;28;20334;-80
2022/02/24 18:53:01;;;;;;;1.60;1.23;;;3.40;99.90;;;;;;6338438;28;20439;-80
2022/02/24 18:56:07;;;;;;;1.80;1.70;;;3.30;99.90;;;;;;6335816;28;20579;-77
2022/02/24 18:59:16;;;;;;;1.50;1.50;;;3.20;99.90;;;;;;6336727;28;20300;-78
2022/02/24 19:02:21;;;;;;;1.70;1.50;;;3.30;99.90;;;;;;6337559;28;20273;-82
2022/02/24 19:05:28;;;;;;;1.90;1.50;;;3.20;99.90;;;;;;6319133;28;20474;-77
2022/02/24 19:08:35;;;;;;;1.60;1.50;;;3.20;99.90;;;;;;6338688;28;20274;-77
2022/02/24 19:11:41;;;;;;;1.60;1.40;;;3.20;99.90;;;;;;6316151;28;20300;-77
2022/02/24 19:14:47;;;;;;;1.50;1.40;;;3.20;99.90;;;;;;6310523;28;20475;-77
2022/02/24 19:17:52;;;;;;;4.03;1.47;;;3.20;99.90;;;;;;6310929;28;20270;-78
2022/02/24 19:20:57;;;;;;;2.80;1.47;;;3.10;99.90;;;;;;6312186;28;20306;-78
2022/02/24 19:24:06;;;;;;;1.40;1.40;;;3.10;99.90;;;;;;6310381;28;20290;-77
2022/02/24 19:27:11;;;;;;;1.27;1.27;;;3.20;99.90;;;;;;6311873;28;20274;-77
2022/02/24 19:30:17;;;;;;;1.10;1.10;;;3.10;99.90;;;;;;6315103;28;20381;-76
2022/02/24 19:33:23;;;;;;;1.40;1.40;;;3.10;99.90;;;;;;6315312;28;20274;-75
2022/02/24 19:36:29;;;;;;;1.60;1.50;;;3.10;99.90;;;;;;6315002;28;20294;-75
2022/02/24 19:39:36;;;;;;;1.50;1.50;;;3.10;99.90;;;;;;6314435;28;20451;-77
2022/02/24 19:42:42;;;;;;;2.07;1.90;;;3.10;99.90;;;;;;6314798;28;20271;-76
2022/02/24 19:45:47;;;;;;;2.00;1.90;;;3.10;99.90;;;;;;6314862;28;20290;-77
2022/02/24 19:48:53;;;;;;;3.37;1.60;;;3.10;99.90;;;;;;6314334;28;20266;-77
2022/02/24 19:52:00;;;;;;;3.80;1.60;;;3.10;99.90;;;;;;6314960;28;20474;-77
2022/02/24 19:55:07;;;;;;;2.30;1.77;;;3.00;99.90;;;;;;6315231;28;20294;-77
2022/02/24 19:58:14;;;;;;;1.50;1.37;;;3.00;99.90;;;;;;6314533;28;20270;-76
2022/02/24 20:01:20;;;;;;;2.00;1.70;;;3.00;99.90;;;;;;6314349;28;20299;-76
2022/02/24 20:04:26;;;;;;;1.50;1.50;;;2.90;99.90;;;;;;6313510;28;20455;-76
2022/02/24 20:07:31;;;;;;;1.50;1.40;;;2.90;99.90;;;;;;6314816;28;20270;-75
2022/02/24 20:10:38;;;;;;;1.67;1.57;;;2.90;99.90;;;;;;6313218;28;20574;-75
2022/02/24 20:13:43;;;;;;;1.60;1.50;;;2.90;99.90;;;;;;6314484;28;20263;-78
2022/02/24 20:16:49;;;;;;;3.93;1.70;;;2.90;99.90;;;;;;6315867;28;20265;-77
2022/02/24 20:19:58;;;;;;;1.90;1.40;;;2.80;99.90;;;;;;6313446;28;20303;-76
2022/02/24 20:23:06;;;;;;;2.30;1.53;;;2.80;99.90;;;;;;6316482;28;20271;-77
2022/02/24 20:26:17;;;;;;;1.43;1.40;;;2.80;99.90;;;;;;6317110;28;20580;-77
2022/02/24 20:29:24;;;;;;;3.17;1.83;;;2.80;99.90;;;;;;6314829;28;20291;-77
2022/02/24 20:32:32;;;;;;;2.40;1.93;;;2.70;99.90;;;;;;6315057;28;20287;-77
2022/02/24 20:35:39;;;;;;;1.87;1.77;;;2.80;99.90;;;;;;6314301;28;20300;-77
2022/02/24 20:38:45;;;;;;;3.30;1.70;;;2.70;99.90;;;;;;6314575;28;20276;-78
2022/02/24 20:41:52;;;;;;;1.80;1.70;;;2.70;99.90;;;;;;6298963;28;20296;-77
2022/02/24 20:45:10;;;;;;;1.70;1.60;;;2.80;99.90;;;;;;6314616;28;20594;-76
2022/02/24 20:48:17;;;;;;;2.17;2.07;;;2.80;99.90;;;;;;6315813;28;20305;-77
2022/02/24 20:51:25;;;;;;;2.00;1.90;;;2.70;99.90;;;;;;6316291;28;20302;-78
2022/02/24 20:54:30;;;;;;;2.00;1.90;;;2.80;99.90;;;;;;6316599;28;20298;-77
2022/02/24 20:57:37;;;;;;;2.27;2.17;;;2.70;99.90;;;;;;6315474;28;20566;-78
2022/02/24 21:00:43;;;;;;;1.83;1.83;;;2.60;99.90;;;;;;6315294;28;20488;-77
2022/02/24 21:03:48;;;;;;;2.33;2.10;;;2.60;99.90;;;;;;6314900;28;20288;-78
2022/02/24 21:06:54;;;;;;;2.00;2.00;;;2.60;99.90;;;;;;6315851;28;20542;-78
2022/02/24 21:09:59;;;;;;;2.57;2.23;;;2.50;99.90;;;;;;6318337;28;20295;-79
2022/02/24 21:13:06;;;;;;;2.00;2.00;;;2.50;99.90;;;;;;6314887;28;20293;-77
2022/02/24 21:16:13;;;;;;;2.30;2.10;;;2.40;99.90;;;;;;6312612;28;20301;-77
2022/02/24 21:19:18;;;;;;;2.10;2.00;;;2.30;99.90;;;;;;6310860;28;20317;-77
2022/02/24 21:22:23;;;;;;;2.10;2.00;;;2.30;99.90;;;;;;6312363;28;20279;-77
2022/02/24 21:25:29;;;;;;;2.00;2.00;;;2.40;99.90;;;;;;6312683;28;20294;-77
2022/02/24 21:28:36;;;;;;;2.33;2.23;;;2.30;99.90;;;;;;6312353;28;20277;-77
2022/02/24 21:31:44;;;;;;;2.10;2.07;;;2.30;99.90;;;;;;6337796;28;20302;-77
2022/02/24 21:34:50;;;;;;;1.97;1.90;;;2.40;99.90;;;;;;6337709;28;20290;-77
2022/02/24 21:37:57;;;;;;;2.57;2.47;;;2.40;99.90;;;;;;6354216;28;20273;-77
2022/02/24 21:41:02;;;;;;;4.37;2.40;;;2.30;99.90;;;;;;6337429;28;20308;-77
2022/02/24 21:44:10;;;;;;;2.17;2.07;;;2.40;99.90;;;;;;6337593;28;20304;-77
2022/02/24 21:47:15;;;;;;;3.80;2.33;;;2.40;99.90;;;;;;6336629;28;20277;-76
2022/02/24 21:50:20;;;;;;;2.70;2.60;;;2.40;99.90;;;;;;6336572;28;20296;-76
2022/02/24 21:53:26;;;;;;;2.67;2.67;;;2.30;99.90;;;;;;6337674;28;20295;-77
2022/02/24 21:56:33;;;;;;;2.47;2.47;;;2.30;99.90;;;;;;6337487;28;20296;-76
2022/02/24 21:59:39;;;;;;;2.60;2.60;;;2.30;99.90;;;;;;6336056;28;20292;-76
2022/02/24 22:02:48;;;;;;;2.60;2.50;;;2.30;99.90;;;;;;6337541;28;20276;-76
2022/02/24 22:06:13;;;;;;;2.80;2.60;;;2.30;99.90;;;;;;6337539;28;20293;-76
2022/02/24 22:09:19;;;;;;;2.67;2.50;;;2.30;99.90;;;;;;6337289;28;20300;-77
2022/02/24 22:12:44;;;;;;;2.57;2.50;;;2.30;99.90;;;;;;6338101;28;20621;-77
2022/02/24 22:15:52;;;;;;;2.33;2.13;;;2.30;99.90;;;;;;6337875;28;20294;-77
2022/02/24 22:18:57;;;;;;;2.83;2.60;;;2.20;99.90;;;;;;6336386;28;20272;-77
2022/02/24 22:22:03;;;;;;;2.30;2.20;;;2.20;99.90;;;;;;6338275;28;20279;-77
2022/02/24 22:25:10;;;;;;;2.30;2.20;;;2.30;99.90;;;;;;6337043;28;20297;-76
2022/02/24 22:28:17;;;;;;;2.17;2.07;;;2.20;99.90;;;;;;6337005;28;20278;-76
2022/02/24 22:31:24;;;;;;;3.70;1.90;;;2.20;99.90;;;;;;6336798;28;20297;-76
2022/02/24 22:34:29;;;;;;;3.73;1.90;;;2.20;99.90;;;;;;6337083;28;20292;-76
2022/02/24 22:37:34;;;;;;;1.90;1.90;;;2.20;99.90;;;;;;6337365;28;20454;-76
2022/02/24 22:40:40;;;;;;;2.00;1.93;;;2.20;99.90;;;;;;6336798;28;20293;-76
2022/02/24 22:43:45;;;;;;;1.93;1.93;;;2.20;99.90;;;;;;6336595;28;20276;-76
2022/02/24 22:46:52;;;;;;;1.80;1.80;;;2.20;99.90;;;;;;6337482;28;20273;-76
2022/02/24 22:50:00;;;;;;;2.23;2.13;;;2.10;99.90;;;;;;6337224;28;20301;-76
2022/02/24 22:53:06;;;;;;;2.50;2.40;;;2.10;99.90;;;;;;6336963;28;20292;-76